< < Back
Terminal Aerodrome Forecast


Current Version              Previous Versions:   1  2  3  4  5  6  7  8  9  

Terminal Aerodrome Forecast

193
FTUS42 KTAE 261120
TAFDHN
TAF
KDHN 261120Z 2612/2712 06003KT P6SM SKC
     FM261500 08010KT P6SM SCT250=

Latest METAR

106
SAUS70 KWBC 271100 RRC
MTRDHN
METAR KDHN 271053Z AUTO 00000KT 10SM CLR 22/22 A3006 RMK AO2 SLP174
T02220217


USA.gov is the U.S. government's official web portal to all federal, state and local government web resources and services.